Date,TemperatureHighF,TemperatureAvgF,TemperatureLowF,DewpointHighF,DewpointAvgF,DewpointLowF,HumidityHigh,HumidityAvg,HumidityLow,PressureMaxIn,PressureMinIn,WindSpeedMaxMPH,WindSpeedAvgMPH,GustSpeedMaxMPH,PrecipitationSumIn
2013-10-1,82,81,80,-100,-100,-100,0,0,100,0.00,40.00,0,-999,0,0.00
2013-10-2,89,82,75,-100,-100,-100,0,0,100,0.00,40.00,0,-999,0,0.00
2013-10-3,89,81,76,-100,-100,-100,0,0,100,0.00,40.00,0,-999,0,0.00
2013-10-4,89,82,73,-100,-100,-100,0,0,100,0.00,40.00,0,-999,0,0.00
2013-10-5,87,75,62,-100,-100,-100,0,0,100,0.00,40.00,0,-999,0,0.00
2013-10-6,78,62,51,-100,-100,-100,0,0,100,0.00,40.00,0,-999,0,0.00
2013-10-7,83,66,50,-100,-100,-100,0,0,100,0.00,40.00,0,-999,0,0.00
2013-10-8,83,65,51,-100,-100,-100,0,0,100,0.00,40.00,0,-999,0,0.00
2013-10-9,83,68,54,-100,-100,-100,0,0,100,0.00,40.00,0,-999,0,0.00
2013-10-10,86,72,60,-100,-100,-100,0,0,100,0.00,40.00,0,-999,0,0.00
2013-10-11,88,79,71,-100,-100,-100,0,0,100,0.00,40.00,0,-999,0,0.00
2013-10-12,89,81,76,-100,-100,-100,0,0,100,0.00,40.00,0,-999,0,0.00
2013-10-13,78,73,66,-100,-100,-100,0,0,100,0.00,40.00,0,-999,0,0.00
2013-10-14,81,75,72,-100,-100,-100,0,0,100,0.00,40.00,0,-999,0,0.00
2013-10-15,83,75,63,-100,-100,-100,0,0,100,0.00,40.00,0,-999,0,0.00
2013-10-16,62,57,53,-100,-100,-100,0,0,100,0.00,40.00,0,-999,0,0.00
2013-10-17,73,61,51,-100,-100,-100,0,0,100,0.00,40.00,0,-999,0,0.00
2013-10-18,71,64,54,-100,-100,-100,0,0,100,0.00,40.00,0,-999,0,0.00
2013-10-19,66,58,50,-100,-100,-100,0,0,100,0.00,40.00,0,-999,0,0.00
2013-10-20,73,59,43,-100,-100,-100,0,0,100,0.00,40.00,0,-999,0,0.00
2013-10-21,79,68,57,-100,-100,-100,0,0,100,0.00,40.00,0,-999,0,0.00
2013-10-22,74,62,51,-100,-100,-100,0,0,100,0.00,40.00,0,-999,0,0.00
2013-10-23,80,62,47,-100,-100,-100,0,0,100,0.00,40.00,0,-999,0,0.00
2013-10-24,80,62,47,-100,-100,-100,0,0,100,0.00,40.00,0,-999,0,0.00
2013-10-25,79,63,52,-100,-100,-100,0,0,100,0.00,40.00,0,-999,0,0.00
2013-10-26,80,71,64,-100,-100,-100,0,0,100,0.00,40.00,0,-999,0,0.00
2013-10-27,76,70,65,-100,-100,-100,0,0,100,0.00,40.00,0,-999,0,0.00
2013-10-28,82,72,66,-100,-100,-100,0,0,100,0.00,40.00,0,-999,0,0.00
2013-10-29,83,74,69,-100,-100,-100,0,0,100,0.00,40.00,0,-999,0,0.00
2013-10-30,83,77,73,-100,-100,-100,0,0,100,0.00,40.00,0,-999,0,0.00
2013-10-31,80,69,55,-100,-100,-100,0,0,100,0.00,40.00,0,-999,0,0.00